sensor_id;sensor_type;location;lat;lon;timestamp;temperature;humidity
322;DHT22;148;51.480;7.208;2022-12-18T00:02:01;0.10;61.90
322;DHT22;148;51.480;7.208;2022-12-18T00:04:27;-0.10;62.20
322;DHT22;148;51.480;7.208;2022-12-18T13:41:27;4.10;51.40
322;DHT22;148;51.480;7.208;2022-12-18T13:46:55;4.60;50.80
322;DHT22;148;51.480;7.208;2022-12-18T13:49:40;4.80;50.10
322;DHT22;148;51.480;7.208;2022-12-18T13:52:24;5.00;50.00
322;DHT22;148;51.480;7.208;2022-12-18T13:54:53;5.10;50.10
322;DHT22;148;51.480;7.208;2022-12-18T13:57:28;5.20;50.00
322;DHT22;148;51.480;7.208;2022-12-18T13:59:55;5.20;49.90
322;DHT22;148;51.480;7.208;2022-12-18T17:44:03;2.10;69.10
322;DHT22;148;51.480;7.208;2022-12-18T17:46:30;2.20;69.10
322;DHT22;148;51.480;7.208;2022-12-18T17:49:01;2.50;69.10
322;DHT22;148;51.480;7.208;2022-12-18T17:51:27;2.60;69.40
322;DHT22;148;51.480;7.208;2022-12-18T17:53:53;2.80;69.50
322;DHT22;148;51.480;7.208;2022-12-18T17:56:21;2.90;69.70
322;DHT22;148;51.480;7.208;2022-12-18T17:58:47;3.00;69.80
322;DHT22;148;51.480;7.208;2022-12-18T18:01:17;3.10;69.90
322;DHT22;148;51.480;7.208;2022-12-18T18:03:45;3.10;69.90
322;DHT22;148;51.480;7.208;2022-12-18T18:06:10;3.10;70.00
322;DHT22;148;51.480;7.208;2022-12-18T18:08:36;3.00;69.90
322;DHT22;148;51.480;7.208;2022-12-18T18:11:07;3.10;70.00
322;DHT22;148;51.480;7.208;2022-12-18T18:13:52;3.00;70.10
322;DHT22;148;51.480;7.208;2022-12-18T18:16:36;3.00;70.10
322;DHT22;148;51.480;7.208;2022-12-18T18:19:11;2.80;70.20
322;DHT22;148;51.480;7.208;2022-12-18T18:21:39;2.90;70.20
322;DHT22;148;51.480;7.208;2022-12-18T18:24:08;2.80;70.30
322;DHT22;148;51.480;7.208;2022-12-18T18:26:35;2.80;70.20
322;DHT22;148;51.480;7.208;2022-12-18T18:29:03;2.80;70.20
322;DHT22;148;51.480;7.208;2022-12-18T18:31:30;2.80;70.30
322;DHT22;148;51.480;7.208;2022-12-18T18:33:56;2.80;70.30
322;DHT22;148;51.480;7.208;2022-12-18T18:36:22;2.80;70.20
322;DHT22;148;51.480;7.208;2022-12-18T18:38:48;2.80;70.20
322;DHT22;148;51.480;7.208;2022-12-18T18:41:14;2.80;70.20
322;DHT22;148;51.480;7.208;2022-12-18T18:43:39;2.80;70.30
322;DHT22;148;51.480;7.208;2022-12-18T18:46:05;2.90;70.30
322;DHT22;148;51.480;7.208;2022-12-18T18:48:34;2.90;70.20
322;DHT22;148;51.480;7.208;2022-12-18T18:51:06;2.90;70.20
322;DHT22;148;51.480;7.208;2022-12-18T18:53:37;2.90;70.30
322;DHT22;148;51.480;7.208;2022-12-18T18:56:05;2.90;70.30
322;DHT22;148;51.480;7.208;2022-12-18T18:58:30;2.80;70.20
322;DHT22;148;51.480;7.208;2022-12-18T19:01:02;2.80;70.60
322;DHT22;148;51.480;7.208;2022-12-18T19:03:29;2.80;70.60
322;DHT22;148;51.480;7.208;2022-12-18T19:05:56;2.80;70.60
322;DHT22;148;51.480;7.208;2022-12-18T19:08:28;2.80;70.50
322;DHT22;148;51.480;7.208;2022-12-18T19:10:57;3.00;70.50
322;DHT22;148;51.480;7.208;2022-12-18T19:13:26;3.00;70.30
322;DHT22;148;51.480;7.208;2022-12-18T19:16:05;3.10;70.20
322;DHT22;148;51.480;7.208;2022-12-18T19:18:31;3.10;70.10
322;DHT22;148;51.480;7.208;2022-12-18T19:21:02;3.10;70.10
322;DHT22;148;51.480;7.208;2022-12-18T19:23:29;3.10;70.20
322;DHT22;148;51.480;7.208;2022-12-18T19:25:58;3.10;69.90
322;DHT22;148;51.480;7.208;2022-12-18T19:28:23;3.00;69.90
322;DHT22;148;51.480;7.208;2022-12-18T19:30:51;3.00;70.20
322;DHT22;148;51.480;7.208;2022-12-18T19:33:19;3.10;70.00
322;DHT22;148;51.480;7.208;2022-12-18T19:35:44;3.10;70.00
322;DHT22;148;51.480;7.208;2022-12-18T19:38:10;3.00;70.20
322;DHT22;148;51.480;7.208;2022-12-18T19:40:40;3.00;70.20
322;DHT22;148;51.480;7.208;2022-12-18T19:43:06;3.00;70.00
322;DHT22;148;51.480;7.208;2022-12-18T19:45:31;2.90;70.20
322;DHT22;148;51.480;7.208;2022-12-18T19:47:58;2.90;70.20
322;DHT22;148;51.480;7.208;2022-12-18T19:50:23;2.70;70.50
322;DHT22;148;51.480;7.208;2022-12-18T19:52:50;2.80;70.10
322;DHT22;148;51.480;7.208;2022-12-18T19:55:15;2.80;69.80
322;DHT22;148;51.480;7.208;2022-12-18T19:57:42;2.80;69.70
322;DHT22;148;51.480;7.208;2022-12-18T20:00:08;2.80;69.90
322;DHT22;148;51.480;7.208;2022-12-18T20:02:34;3.00;69.70
322;DHT22;148;51.480;7.208;2022-12-18T20:05:05;3.00;69.40
322;DHT22;148;51.480;7.208;2022-12-18T20:07:31;2.90;69.40
322;DHT22;148;51.480;7.208;2022-12-18T20:09:58;2.90;69.40
322;DHT22;148;51.480;7.208;2022-12-18T20:12:23;2.90;69.30
322;DHT22;148;51.480;7.208;2022-12-18T20:14:49;3.00;69.20
322;DHT22;148;51.480;7.208;2022-12-18T20:17:14;3.00;69.20
322;DHT22;148;51.480;7.208;2022-12-18T20:19:40;3.00;69.20
322;DHT22;148;51.480;7.208;2022-12-18T20:22:06;3.10;69.00
322;DHT22;148;51.480;7.208;2022-12-18T20:24:34;3.00;69.00
322;DHT22;148;51.480;7.208;2022-12-18T20:27:00;3.10;68.70
322;DHT22;148;51.480;7.208;2022-12-18T20:29:25;3.10;68.60
322;DHT22;148;51.480;7.208;2022-12-18T20:31:51;3.20;68.50
322;DHT22;148;51.480;7.208;2022-12-18T20:34:17;3.20;68.50
322;DHT22;148;51.480;7.208;2022-12-18T20:36:42;3.20;68.60
322;DHT22;148;51.480;7.208;2022-12-18T20:39:08;3.30;68.80
322;DHT22;148;51.480;7.208;2022-12-18T20:41:34;3.40;68.90
322;DHT22;148;51.480;7.208;2022-12-18T20:44:00;3.50;69.10
322;DHT22;148;51.480;7.208;2022-12-18T20:46:25;3.60;69.30
322;DHT22;148;51.480;7.208;2022-12-18T20:48:51;3.70;69.60
322;DHT22;148;51.480;7.208;2022-12-18T20:51:19;3.80;70.00
322;DHT22;148;51.480;7.208;2022-12-18T20:53:46;3.80;70.30
322;DHT22;148;51.480;7.208;2022-12-18T20:56:20;3.70;70.60
322;DHT22;148;51.480;7.208;2022-12-18T20:58:46;3.70;71.10
322;DHT22;148;51.480;7.208;2022-12-18T21:01:18;3.70;71.30
322;DHT22;148;51.480;7.208;2022-12-18T21:03:46;3.70;71.40
322;DHT22;148;51.480;7.208;2022-12-18T21:06:13;3.70;71.60
322;DHT22;148;51.480;7.208;2022-12-18T21:08:39;3.60;71.70
322;DHT22;148;51.480;7.208;2022-12-18T21:14:28;3.60;71.10
322;DHT22;148;51.480;7.208;2022-12-18T21:16:55;3.50;70.30
322;DHT22;148;51.480;7.208;2022-12-18T21:19:24;3.30;69.30
322;DHT22;148;51.480;7.208;2022-12-18T21:21:50;3.30;67.90
322;DHT22;148;51.480;7.208;2022-12-18T21:24:17;3.30;67.00
322;DHT22;148;51.480;7.208;2022-12-18T21:26:44;3.40;65.70
322;DHT22;148;51.480;7.208;2022-12-18T21:29:13;3.40;65.30
322;DHT22;148;51.480;7.208;2022-12-18T21:31:39;3.40;64.40
322;DHT22;148;51.480;7.208;2022-12-18T21:34:06;3.30;63.60
322;DHT22;148;51.480;7.208;2022-12-18T21:36:32;3.30;62.40
322;DHT22;148;51.480;7.208;2022-12-18T21:38:58;3.30;62.20
322;DHT22;148;51.480;7.208;2022-12-18T21:41:26;3.30;62.20
322;DHT22;148;51.480;7.208;2022-12-18T21:44:15;3.30;63.00
322;DHT22;148;51.480;7.208;2022-12-18T21:46:44;3.30;64.10
